Time;durP1;ratioP1;P1;durP2;ratioP2;P2;SDS_P1;SDS_P2;PMS_P1;PMS_P2;Temp;Humidity;BMP_temperature;BMP_pressure;BME280_temperature;BME280_humidity;BME280_pressure;Samples;Min_cycle;Max_cycle;Signal;HPM_P1;HPM_P2
2021/04/11 10:06:13;;;;;;;6.25;2.10;;;;;;;17.42;36.36;100077.03;4361175;31;1380860;-93
2021/04/11 10:08:59;;;;;;;10.45;2.33;;;;;;;17.65;35.72;100075.59;4377220;32;34202;-91
2021/04/11 10:11:54;;;;;;;6.28;2.78;;;;;;;17.08;35.56;100075.66;4398380;32;32747;-92
2021/04/11 10:14:48;;;;;;;6.85;2.25;;;;;;;17.33;36.31;100075.66;4400136;32;33709;-92
2021/04/11 10:17:52;;;;;;;6.75;1.58;;;;;;;17.36;34.57;100069.75;4399639;32;33335;-94
2021/04/11 10:20:41;;;;;;;4.28;2.03;;;;;;;16.83;35.22;100079.19;4376570;32;31866;-95
2021/04/11 10:23:22;;;;;;;7.03;1.95;;;;;;;17.04;36.84;100069.00;4366436;32;34618;-95
2021/04/11 10:26:04;;;;;;;6.03;1.83;;;;;;;16.34;35.32;100076.09;4367331;32;34105;-96
2021/04/11 10:28:39;;;;;;;2.12;1.25;;;;;;;16.42;35.56;100064.09;4366453;32;34398;-93
2021/04/11 10:31:41;;;;;;;10.35;1.73;;;;;;;16.56;33.89;100082.06;4363758;32;34629;-94
2021/04/11 10:34:26;;;;;;;6.00;1.65;;;;;;;16.17;35.00;100081.22;4371963;32;35472;-96
2021/04/11 10:37:01;;;;;;;2.87;1.55;;;;;;;16.61;33.75;100058.75;4359879;32;34195;-95
2021/04/11 10:40:05;;;;;;;7.18;1.55;;;;;;;16.85;32.94;100060.66;4300506;33;34017;-94
2021/04/11 10:43:34;;;;;;;3.42;1.80;;;;;;;17.41;31.73;100059.00;4198140;33;33146;-91
2021/04/11 10:46:20;;;;;;;3.97;1.55;;;;;;;17.20;31.66;100048.47;4258473;33;32606;-92
2021/04/11 10:49:20;;;;;;;2.85;1.50;;;;;;;16.83;32.02;100051.88;4271823;33;32694;-93
2021/04/11 10:52:31;;;;;;;3.15;1.52;;;;;;;16.85;31.96;100049.75;4305066;27;32251;31
2021/04/11 10:55:48;;;;;;;4.50;1.52;;;;;;;16.52;32.51;100044.53;4328227;33;32853;-92
2021/04/11 10:58:47;;;;;;;5.97;1.85;;;;;;;16.76;32.51;100046.44;4342726;32;33939;-96
2021/04/11 11:02:22;;;;;;;3.97;1.87;;;;;;;17.20;31.69;100027.47;4327926;33;32760;-96
2021/04/11 11:05:11;;;;;;;6.00;1.73;;;;;;;16.72;32.59;100028.88;4339269;33;32632;-93
2021/04/11 11:08:15;;;;;;;;;;;;;;;17.27;32.21;100027.37;4330867;33;34010;-91
2021/04/11 11:12:05;;;;;;;2.85;1.80;;;;;;;17.60;31.88;100023.47;4351233;32;34448;-91
2021/04/11 11:16:11;;;;;;;3.40;2.08;;;;;;;17.42;32.82;100027.03;4525188;27;33078;-92
2021/04/11 11:19:21;;;;;;;4.40;2.10;;;;;;;17.34;32.48;100019.16;4367693;32;32331;-93
2021/04/11 11:22:46;;;;;;;4.40;2.22;;;;;;;17.56;32.22;100022.25;4336234;32;31913;-92
2021/04/11 11:25:54;;;;;;;4.80;2.35;;;;;;;17.52;32.22;100021.88;4350321;32;33856;-92
2021/04/11 11:28:59;;;;;;;3.10;1.62;;;;;;;17.56;31.93;100031.31;4324163;33;34471;-95
2021/04/11 11:31:44;;;;;;;4.90;1.75;;;;;;;16.82;31.66;100022.91;4343165;32;34529;-90
2021/04/11 11:34:42;;;;;;;6.07;1.70;;;;;;;17.39;30.25;100025.59;4355600;32;35249;-96
2021/04/11 11:37:27;;;;;;;6.82;1.58;;;;;;;18.12;27.93;100021.22;4358534;32;34383;-94
2021/04/11 11:40:38;;;;;;;6.90;1.45;;;;;;;18.11;28.38;100027.75;4324686;33;32999;-94
2021/04/11 11:44:09;;;;;;;7.72;2.65;;;;;;;17.57;29.46;100026.66;4292496;32;37479;-96
2021/04/11 11:47:56;;;;;;;3.97;1.40;;;;;;;16.70;29.89;100030.97;4283244;33;34157;-95
2021/04/11 11:51:18;;;;;;;6.75;1.77;;;;;;;16.91;29.66;100026.22;4337812;32;34270;-93
2021/04/11 11:54:41;;;;;;;7.78;1.98;;;;;;;17.24;29.32;100019.66;4329366;33;34273;-95
2021/04/11 11:57:41;;;;;;;3.58;1.83;;;;;;;16.96;29.91;100018.22;4315282;33;33147;-94
2021/04/11 12:00:32;;;;;;;4.85;2.75;;;;;;;16.95;30.17;100016.53;4334257;32;33288;-96
2021/04/11 12:03:26;;;;;;;8.27;2.53;;;;;;;16.99;29.76;100001.41;4331027;32;34685;-92
2021/04/11 12:06:09;;;;;;;6.85;2.10;;;;;;;16.53;30.93;100014.31;4356067;32;34361;-89
2021/04/11 12:09:19;;;;;;;4.45;2.08;;;;;;;16.32;31.70;100010.03;4305259;32;34735;-93
2021/04/11 12:12:12;;;;;;;6.25;1.90;;;;;;;16.72;31.96;99995.25;4330005;33;33366;-90
2021/04/11 12:15:06;;;;;;;8.25;2.22;;;;;;;16.91;31.62;99999.75;4311693;33;33572;-94
2021/04/11 12:17:56;;;;;;;6.95;2.17;;;;;;;16.63;32.16;99997.47;4300934;33;34445;-95
2021/04/11 12:20:57;;;;;;;6.82;2.78;;;;;;;16.64;32.62;100001.00;4317781;33;32941;-96
2021/04/11 12:24:01;;;;;;;3.65;2.20;;;;;;;16.88;32.28;99997.47;4293116;33;33872;-95
2021/04/11 12:26:57;;;;;;;7.10;2.55;;;;;;;16.80;33.63;99991.44;4292421;33;34131;-93
2021/04/11 12:29:39;;;;;;;8.30;2.90;;;;;;;16.75;32.62;99982.03;4320240;33;34349;-95
2021/04/11 12:33:07;;;;;;;6.10;2.10;;;;;;;16.86;33.03;99983.19;4298540;33;35444;-93
2021/04/11 12:36:23;;;;;;;;;;;;;;;17.17;32.77;99976.03;4293100;33;34044;-94
2021/04/11 12:39:06;;;;;;;7.45;2.90;;;;;;;17.69;32.27;99977.56;4309332;33;35262;-93
2021/04/11 12:42:21;;;;;;;4.70;2.47;;;;;;;16.83;33.67;99969.16;4286527;33;34380;-96
2021/04/11 12:45:28;;;;;;;;;;;;;;;17.69;32.66;99970.19;4306545;33;35716;-91
2021/04/11 12:48:33;;;;;;;6.43;2.83;;;;;;;16.96;33.56;99963.63;4311861;33;33531;-96
2021/04/11 12:52:03;;;;;;;6.30;2.85;;;;;;;17.25;33.46;99955.78;4248853;32;34717;-96
2021/04/11 12:54:52;;;;;;;5.97;2.50;;;;;;;17.81;32.50;99948.37;4352515;32;34886;-96
2021/04/11 12:57:43;;;;;;;;;;;;;;;17.67;32.57;99953.19;4314299;33;32616;-95
2021/04/11 13:00:34;;;;;;;6.18;2.75;;;;;;;17.17;33.54;99950.59;4332221;33;33524;-95
2021/04/11 13:03:27;;;;;;;4.62;2.75;;;;;;;17.29;33.68;99951.53;4325308;33;33042;-96
2021/04/11 13:06:37;;;;;;;9.02;2.83;;;;;;;16.96;33.84;99946.38;4309031;33;33875;-92
2021/04/11 13:09:52;;;;;;;6.12;2.72;;;;;;;17.29;33.53;99937.88;4295812;33;37204;-96
2021/04/11 13:13:04;;;;;;;8.32;3.30;;;;;;;17.43;32.93;99933.09;4301708;33;33596;-93
2021/04/11 13:15:53;;;;;;;6.35;2.20;;;;;;;18.04;31.57;99931.28;4343981;32;34157;-93
2021/04/11 13:18:49;;;;;;;6.70;2.37;;;;;;;17.99;31.75;99931.13;4333630;32;34326;-91
2021/04/11 13:21:52;;;;;;;8.07;2.35;;;;;;;17.44;32.65;99926.53;4321169;33;33153;-92
2021/04/11 13:24:44;;;;;;;11.35;2.42;;;;;;;17.85;32.20;99927.72;4310967;33;35068;-94
2021/04/11 13:27:54;;;;;;;4.65;2.30;;;;;;;17.55;32.75;99922.25;4334078;32;32886;-95
2021/04/11 13:30:35;;;;;;;6.53;2.62;;;;;;;18.42;31.73;99918.31;4339223;32;33191;-96
2021/04/11 13:33:30;;;;;;;7.65;2.85;;;;;;;18.65;31.44;99917.50;4328480;33;33975;-96
2021/04/11 13:36:07;;;;;;;6.95;2.92;;;;;;;18.20;32.29;99907.09;4321983;33;32404;-94
2021/04/11 13:38:59;;;;;;;5.90;2.17;;;;;;;18.04;33.00;99928.56;4314065;33;32983;-92
2021/04/11 13:42:08;;;;;;;7.28;2.33;;;;;;;18.28;32.79;99912.22;4313982;32;34164;-92
2021/04/11 13:44:58;;;;;;;8.02;2.80;;;;;;;18.65;32.46;99914.78;4328248;33;33555;-91
2021/04/11 13:47:43;;;;;;;6.35;2.22;;;;;;;18.66;32.31;99913.72;4321830;33;32485;-92
2021/04/11 13:50:27;;;;;;;6.65;2.62;;;;;;;18.68;32.50;99917.87;4325783;33;33332;-93
2021/04/11 13:53:37;;;;;;;5.18;2.53;;;;;;;18.36;33.10;99909.16;4329144;33;34349;-93
2021/04/11 13:56:19;;;;;;;7.90;2.33;;;;;;;18.19;33.95;99911.72;4329776;33;33513;-93
2021/04/11 13:59:16;;;;;;;4.03;2.08;;;;;;;18.53;33.44;99907.41;4333361;32;34034;-93
2021/04/11 14:02:05;;;;;;;6.20;2.40;;;;;;;18.09;33.85;99912.28;4320047;32;35249;-92
2021/04/11 14:04:47;;;;;;;8.32;2.35;;;;;;;18.37;33.40;99913.56;4318007;32;33550;-91
2021/04/11 14:07:54;;;;;;;7.72;2.40;;;;;;;18.20;33.89;99915.28;4330124;33;34913;-92
2021/04/11 14:10:58;;;;;;;8.63;2.80;;;;;;;17.76;34.57;99913.53;4308337;33;33253;-91
2021/04/11 14:13:42;;;;;;;7.22;2.30;;;;;;;18.58;33.53;99906.69;4340194;32;34871;-93
2021/04/11 14:16:21;;;;;;;4.30;2.00;;;;;;;18.43;33.29;99903.53;4312172;33;33993;-92
2021/04/11 14:19:09;;;;;;;4.07;2.50;;;;;;;18.94;32.64;99901.25;4284146;33;34056;-94
2021/04/11 14:21:50;;;;;;;5.28;2.20;;;;;;;19.48;32.32;99901.87;4331710;33;32793;-92
2021/04/11 14:24:49;;;;;;;3.75;2.33;;;;;;;18.70;32.74;99890.28;4301592;33;37061;-92
2021/04/11 14:27:40;;;;;;;7.47;3.75;;;;;;;19.33;32.68;99887.88;4294309;33;34710;-92
2021/04/11 14:30:27;;;;;;;12.45;2.97;;;;;;;19.20;32.75;99888.97;4314653;33;33846;-92
2021/04/11 14:33:16;;;;;;;;;;;;;;;18.97;32.92;99895.31;4299907;33;34479;-92
2021/04/11 14:36:08;;;;;;;7.62;3.00;;;;;;;18.82;34.30;99893.03;4292987;33;32926;-92
2021/04/11 14:38:55;;;;;;;4.65;2.33;;;;;;;18.73;33.46;99895.28;4308382;33;34598;-92
2021/04/11 14:42:05;;;;;;;5.87;2.67;;;;;;;18.33;32.44;99895.94;4298798;33;34355;-91
2021/04/11 14:44:40;;;;;;;5.87;2.90;;;;;;;17.59;32.12;99882.44;4339755;33;34085;-91
2021/04/11 14:47:42;;;;;;;5.28;2.60;;;;;;;17.63;33.77;99891.84;4306550;33;33965;-91
2021/04/11 14:50:33;;;;;;;6.87;2.10;;;;;;;17.14;34.62;99899.16;4288343;33;34274;-90
2021/04/11 14:53:27;;;;;;;3.95;1.55;;;;;;;17.30;33.74;99887.63;4308758;33;33961;-91
2021/04/11 14:56:04;;;;;;;3.37;1.98;;;;;;;16.65;32.73;99901.72;4313277;33;34048;-93
2021/04/11 14:59:18;;;;;;;7.47;3.72;;;;;;;16.03;35.16;99905.97;4320904;33;34255;-94
2021/04/11 15:02:00;;;;;;;8.15;2.85;;;;;;;15.67;36.01;99907.38;4327670;33;33105;-92
2021/04/11 15:04:51;;;;;;;3.40;1.77;;;;;;;15.86;37.39;99902.91;4329250;32;33661;-93
2021/04/11 15:08:20;;;;;;;6.22;1.98;;;;;;;16.42;36.13;99905.88;4331256;33;33426;-92
2021/04/11 15:11:27;;;;;;;5.55;1.90;;;;;;;15.96;36.92;99890.69;4326032;32;34747;-93
2021/04/11 15:14:22;;;;;;;6.80;2.08;;;;;;;15.78;37.26;99902.31;4314527;33;34277;-92
2021/04/11 15:17:39;;;;;;;6.80;2.17;;;;;;;16.47;37.31;99895.16;4296428;33;36069;-92
2021/04/11 15:20:26;;;;;;;4.60;2.70;;;;;;;16.54;36.93;99897.81;4282813;33;33758;-92
2021/04/11 15:23:28;;;;;;;4.97;2.90;;;;;;;16.42;37.17;99895.81;4273754;33;33504;-93
2021/04/11 15:26:38;;;;;;;5.43;2.53;;;;;;;17.43;37.13;99898.41;4307512;33;36155;-84
2021/04/11 15:30:02;;;;;;;7.03;2.78;;;;;;;18.14;35.55;99893.28;4321186;33;36358;-93
2021/04/11 15:33:04;;;;;;;9.32;2.50;;;;;;;18.72;34.85;99882.66;4311392;33;34276;-91
2021/04/11 15:35:46;;;;;;;9.45;3.10;;;;;;;20.83;30.84;99873.03;4337749;33;34323;-92
2021/04/11 15:38:54;;;;;;;4.07;2.33;;;;;;;22.85;26.19;99857.59;4320963;33;33723;-94
2021/04/11 15:41:47;;;;;;;5.40;2.60;;;;;;;23.14;26.83;99857.22;4331615;33;33393;-93
2021/04/11 15:44:45;;;;;;;;;;;;;;;22.67;26.90;99847.84;4328733;33;34359;-93
2021/04/11 15:48:02;;;;;;;6.10;2.37;;;;;;;22.08;27.32;99852.31;4330212;33;32980;-91
2021/04/11 15:51:02;;;;;;;7.60;2.17;;;;;;;25.18;23.92;99841.13;4329853;33;34038;-93
2021/04/11 15:54:20;;;;;;;8.27;2.45;;;;;;;27.18;21.23;99841.56;4340754;33;35405;-92
2021/04/11 15:57:22;;;;;;;7.12;2.60;;;;;;;28.35;19.59;99849.41;4327843;33;33683;-92
2021/04/11 16:00:01;;;;;;;;;;;;;;;29.72;18.48;99859.31;4307921;33;35521;-92
2021/04/11 16:02:49;;;;;;;8.45;2.80;;;;;;;30.87;16.84;99843.13;4343751;32;33795;-94
2021/04/11 16:05:27;;;;;;;6.07;2.60;;;;;;;29.37;18.00;99850.59;4345030;32;33548;-93
2021/04/11 16:08:08;;;;;;;5.82;2.80;;;;;;;27.29;20.19;99840.34;4322562;33;34725;-92
2021/04/11 16:10:45;;;;;;;7.62;2.67;;;;;;;27.06;20.19;99846.72;4305010;33;33280;-93
2021/04/11 16:13:49;;;;;;;5.00;2.78;;;;;;;24.24;23.74;99863.63;4306443;33;34590;-91
2021/04/11 16:16:56;;;;;;;5.57;2.72;;;;;;;21.22;27.66;99859.28;4299869;33;33445;-92
2021/04/11 16:19:37;;;;;;;3.72;2.22;;;;;;;21.20;26.78;99850.47;4317794;33;33262;-92
2021/04/11 16:22:30;;;;;;;5.68;2.53;;;;;;;20.14;28.21;99854.06;4314314;33;34472;-93
2021/04/11 16:25:20;;;;;;;9.10;2.97;;;;;;;19.01;30.47;99856.25;4310155;33;33532;-92
2021/04/11 16:28:07;;;;;;;11.93;2.80;;;;;;;19.18;30.18;99850.84;4335300;33;33450;-91
2021/04/11 16:30:54;;;;;;;6.72;2.67;;;;;;;18.87;30.10;99860.28;4328825;33;34324;-94
2021/04/11 16:33:37;;;;;;;5.05;2.20;;;;;;;20.87;26.87;99857.72;4329152;33;33277;-92
2021/04/11 16:36:17;;;;;;;8.50;2.30;;;;;;;22.40;25.42;99840.47;4294662;33;34734;-92
2021/04/11 16:39:02;;;;;;;6.37;2.30;;;;;;;22.73;24.09;99846.78;4312800;33;33816;-94
2021/04/11 16:41:52;;;;;;;8.75;3.37;;;;;;;22.04;24.72;99849.22;4303100;33;33670;-93
2021/04/11 16:44:44;;;;;;;7.97;2.17;;;;;;;21.48;25.74;99845.84;4300108;33;34623;-95
2021/04/11 16:47:30;;;;;;;7.65;3.17;;;;;;;19.99;27.07;99847.22;4283634;33;35222;-93
2021/04/11 16:50:12;;;;;;;5.65;2.80;;;;;;;19.63;27.94;99852.03;4286364;33;33083;-93
2021/04/11 16:52:53;;;;;;;4.03;2.20;;;;;;;20.47;26.13;99858.72;4293830;33;34311;-91
2021/04/11 16:55:38;;;;;;;6.60;2.58;;;;;;;20.25;26.17;99855.91;4307852;33;34352;-91
2021/04/11 16:58:42;;;;;;;7.32;2.90;;;;;;;19.07;28.05;99857.16;4308063;33;34862;-91
2021/04/11 17:01:21;;;;;;;5.07;2.25;;;;;;;19.10;28.78;99862.19;4311914;33;33688;-91
2021/04/11 17:04:26;;;;;;;4.40;2.30;;;;;;;18.43;30.30;99857.88;4311001;33;33649;-91
2021/04/11 17:07:24;;;;;;;5.80;2.42;;;;;;;17.52;32.41;99860.69;4324944;33;35050;-92
2021/04/11 17:10:00;;;;;;;;;;;;;;;17.01;33.73;99865.50;4278140;33;34933;-93
2021/04/11 17:12:35;;;;;;;8.75;2.65;;;;;;;16.70;33.49;99867.22;4295461;33;34047;-92
2021/04/11 17:15:16;;;;;;;7.65;2.85;;;;;;;16.83;33.33;99860.00;4304422;33;32366;-92
2021/04/11 17:17:57;;;;;;;;;;;;;;;16.81;33.65;99862.94;4312668;33;34057;-92
2021/04/11 17:20:49;;;;;;;9.63;2.78;;;;;;;16.82;33.21;99872.78;4293573;33;34923;-92
2021/04/11 17:23:51;;;;;;;6.70;2.60;;;;;;;16.90;32.88;99866.22;4306903;33;33348;-92
2021/04/11 17:26:35;;;;;;;11.93;2.97;;;;;;;16.73;33.20;99868.69;4298152;33;32805;-92
2021/04/11 17:29:16;;;;;;;4.55;2.83;;;;;;;15.78;34.14;99866.88;4285096;33;33732;-93
2021/04/11 17:31:58;;;;;;;6.43;3.28;;;;;;;16.06;34.02;99875.53;4308109;33;34484;-92
2021/04/11 17:34:49;;;;;;;9.23;3.35;;;;;;;15.98;33.69;99874.97;4311909;33;33618;-96
2021/04/11 17:37:52;;;;;;;10.10;3.67;;;;;;;15.71;34.08;99878.63;4330075;33;32442;-92
2021/04/11 17:40:27;;;;;;;5.97;2.65;;;;;;;15.69;34.29;99878.03;4285786;33;34350;-92
2021/04/11 17:43:44;;;;;;;10.38;3.10;;;;;;;15.60;34.27;99881.22;4297617;33;32770;-94
2021/04/11 17:46:37;;;;;;;7.80;3.47;;;;;;;15.75;34.10;99880.91;4337666;32;32845;-92
2021/04/11 17:49:34;;;;;;;7.03;3.30;;;;;;;15.40;34.87;99862.25;4313059;33;33971;-94
2021/04/11 17:52:20;;;;;;;7.32;3.80;;;;;;;15.27;34.95;99861.25;4317102;33;33345;-94
2021/04/11 17:55:01;;;;;;;;;;;;;;;15.30;35.00;99863.53;4325955;33;33663;-93
2021/04/11 17:58:00;;;;;;;11.45;4.30;;;;;;;14.96;35.88;99873.69;4302792;33;35261;-93
2021/04/11 18:00:47;;;;;;;9.60;4.68;;;;;;;14.94;36.59;99875.81;4311139;33;33468;-93
2021/04/11 18:03:23;;;;;;;9.82;4.07;;;;;;;15.12;37.24;99871.53;4288104;33;34781;-92
2021/04/11 18:06:17;;;;;;;11.93;4.53;;;;;;;15.03;38.02;99864.66;4288763;33;34571;-94
2021/04/11 18:09:20;;;;;;;11.00;4.30;;;;;;;14.97;38.94;99869.94;4320493;33;33777;-93
2021/04/11 18:12:27;;;;;;;9.50;4.82;;;;;;;15.10;39.29;99873.66;4325004;32;32021;-94
2021/04/11 18:15:03;;;;;;;7.70;4.03;;;;;;;14.93;39.76;99890.44;4305764;33;33753;-93
2021/04/11 18:17:54;;;;;;;10.55;5.03;;;;;;;14.77;40.21;99885.44;4321919;33;34556;-93
2021/04/11 18:20:35;;;;;;;15.02;5.35;;;;;;;14.72;40.46;99887.97;4331486;33;35546;-93
2021/04/11 18:23:20;;;;;;;10.73;5.35;;;;;;;14.57;40.84;99889.00;4302018;33;33095;-93
2021/04/11 18:26:06;;;;;;;12.13;5.47;;;;;;;14.48;41.37;99887.53;4302637;33;35151;-92
2021/04/11 18:28:44;;;;;;;12.95;5.55;;;;;;;14.73;40.62;99881.47;4301933;33;34555;-92
2021/04/11 18:31:28;;;;;;;11.98;5.50;;;;;;;14.38;41.24;99881.69;4326112;33;34189;-92
2021/04/11 18:34:13;;;;;;;13.68;6.53;;;;;;;14.10;42.20;99877.25;4305883;33;37025;-93
2021/04/11 18:37:13;;;;;;;15.90;5.90;;;;;;;14.43;41.40;99881.88;4311708;33;34342;-92
2021/04/11 18:39:51;;;;;;;12.32;5.82;;;;;;;14.34;42.04;99886.72;4334502;33;33622;-93
2021/04/11 18:42:32;;;;;;;9.88;5.78;;;;;;;14.00;42.31;99880.41;4328066;33;36076;-92
2021/04/11 18:45:28;;;;;;;13.62;6.78;;;;;;;14.17;42.63;99886.25;4324344;33;33931;-93
2021/04/11 18:48:11;;;;;;;13.00;5.18;;;;;;;14.15;42.38;99880.22;4312162;33;35576;-93
2021/04/11 18:51:05;;;;;;;8.20;4.82;;;;;;;14.26;42.63;99892.34;4300969;33;34421;-92
2021/04/11 18:54:07;;;;;;;14.40;7.57;;;;;;;14.55;42.16;99893.81;4322923;33;34095;-92
2021/04/11 18:56:54;;;;;;;11.43;5.57;;;;;;;13.90;43.75;99894.37;4330170;32;32902;-91
2021/04/11 18:59:27;;;;;;;10.32;5.47;;;;;;;13.47;44.67;99902.78;4310786;33;33454;-91
2021/04/11 19:02:24;;;;;;;10.43;5.78;;;;;;;13.91;43.41;99898.75;4319912;33;33725;-92
2021/04/11 19:05:00;;;;;;;9.25;4.95;;;;;;;13.64;44.15;99906.00;4315855;33;34194;-93
2021/04/11 19:07:57;;;;;;;17.12;5.45;;;;;;;13.45;44.47;99904.88;4306457;33;33291;-93
2021/04/11 19:11:08;;;;;;;9.57;5.12;;;;;;;13.48;44.77;99907.19;4278483;33;34762;-93
2021/04/11 19:13:56;;;;;;;9.50;5.05;;;;;;;12.94;45.98;99907.94;4336556;32;34522;-93
2021/04/11 19:16:42;;;;;;;8.88;5.30;;;;;;;13.12;45.20;99916.38;4317863;33;34331;-92
2021/04/11 19:19:42;;;;;;;12.85;5.15;;;;;;;12.96;45.44;99911.25;4335982;33;33658;-93
2021/04/11 19:23:21;;;;;;;16.25;6.25;;;;;;;12.94;45.16;99914.19;4298028;32;37101;-92
2021/04/11 19:26:07;;;;;;;10.77;5.68;;;;;;;12.85;45.24;99924.34;4322120;33;33738;-93
2021/04/11 19:29:15;;;;;;;12.40;5.75;;;;;;;11.82;47.74;99921.91;4306966;33;34159;-93
2021/04/11 19:32:05;;;;;;;16.35;7.37;;;;;;;12.34;46.62;99917.25;4344073;32;33908;-92
2021/04/11 19:35:11;;;;;;;9.93;5.45;;;;;;;11.94;47.41;99924.16;4347050;32;34965;-92
2021/04/11 19:38:16;;;;;;;12.37;6.85;;;;;;;11.75;48.14;99914.75;4271205;33;33239;-91
2021/04/11 19:41:08;;;;;;;14.32;5.80;;;;;;;11.45;49.05;99923.78;4303613;33;33802;-92
2021/04/11 19:43:48;;;;;;;13.40;5.82;;;;;;;11.61;48.37;99921.88;4325655;33;34169;-92
2021/04/11 19:46:46;;;;;;;10.88;6.00;;;;;;;10.89;50.35;99931.53;4331239;33;34159;-92
2021/04/11 19:49:45;;;;;;;14.45;5.57;;;;;;;11.11;49.67;99930.59;4328199;33;33951;-92
2021/04/11 19:53:00;;;;;;;15.63;6.32;;;;;;;11.17;49.28;99925.47;4335878;33;32787;-91
2021/04/11 19:56:02;;;;;;;13.07;5.95;;;;;;;10.95;49.57;99930.78;4339632;33;33544;-90
2021/04/11 19:59:00;;;;;;;8.70;5.45;;;;;;;10.87;49.48;99923.59;4279615;33;33806;-95
2021/04/11 20:01:59;;;;;;;13.13;6.47;;;;;;;10.75;49.94;99928.62;4305406;33;34154;-96
2021/04/11 20:05:06;;;;;;;13.48;6.15;;;;;;;10.59;50.33;99926.06;4338582;33;33032;-96
2021/04/11 20:08:18;;;;;;;10.18;5.93;;;;;;;10.44;50.42;99919.81;4330864;33;34511;-96
2021/04/11 20:11:38;;;;;;;9.80;5.60;;;;;;;10.25;51.40;99925.50;4303100;33;34974;-89
2021/04/11 20:14:43;;;;;;;14.87;5.95;;;;;;;10.40;50.47;99927.41;4165092;27;34174;-95
2021/04/11 20:17:43;;;;;;;13.88;6.37;;;;;;;10.29;50.66;99925.13;4345499;32;33972;-95
2021/04/11 20:20:31;;;;;;;9.20;5.43;;;;;;;10.04;51.44;99923.44;4340911;32;32344;-96
2021/04/11 20:23:42;;;;;;;11.55;5.30;;;;;;;9.99;51.44;99925.84;4322238;33;33046;-96
2021/04/11 20:26:44;;;;;;;13.60;5.80;;;;;;;10.25;50.80;99908.41;4321805;33;33630;-95
2021/04/11 20:30:00;;;;;;;11.12;5.82;;;;;;;9.94;51.34;99912.03;4332142;32;34458;-95
2021/04/11 20:32:40;;;;;;;15.13;6.50;;;;;;;9.83;51.52;99923.25;4355650;32;34554;-94
2021/04/11 20:35:33;;;;;;;12.45;6.75;;;;;;;10.02;50.94;99924.63;4333565;32;35358;-96
2021/04/11 20:38:43;;;;;;;10.73;5.93;;;;;;;9.88;51.46;99926.25;4346766;32;33853;-92
2021/04/11 20:41:40;;;;;;;11.45;7.00;;;;;;;9.30;52.75;99929.22;4337681;32;34556;-92
2021/04/11 20:44:38;;;;;;;12.75;7.30;;;;;;;9.36;52.43;99930.41;4330168;32;33787;-90
2021/04/11 20:47:33;;;;;;;12.45;7.95;;;;;;;8.97;53.23;99934.72;4338309;32;34412;-92
2021/04/11 20:50:33;;;;;;;15.02;6.90;;;;;;;9.07;53.12;99922.91;4349235;32;32714;-92
2021/04/11 20:54:17;;;;;;;12.93;7.80;;;;;;;8.83;53.90;99930.03;4328088;32;34274;-91
2021/04/11 20:57:13;;;;;;;13.10;7.20;;;;;;;8.69;54.63;99928.88;4284081;33;34599;-92
2021/04/11 21:00:34;;;;;;;12.57;7.47;;;;;;;8.77;54.48;99925.34;4343056;32;34662;-92
2021/04/11 21:03:34;;;;;;;13.23;7.28;;;;;;;8.71;54.98;99917.94;4358636;32;34967;-94
2021/04/11 21:07:10;;;;;;;13.77;7.47;;;;;;;8.61;55.00;99920.84;4329428;33;33885;-92
2021/04/11 21:09:50;;;;;;;16.12;7.68;;;;;;;8.51;55.26;99921.00;4332300;33;33329;-94
2021/04/11 21:12:31;;;;;;;15.27;8.35;;;;;;;8.83;54.02;99919.25;4334282;33;34424;-94
2021/04/11 21:15:18;;;;;;;10.32;6.50;;;;;;;8.79;54.53;99923.31;4333426;33;34212;-92
2021/04/11 21:17:56;;;;;;;14.57;7.18;;;;;;;8.53;55.26;99932.44;4335137;33;33511;-93
2021/04/11 21:21:08;;;;;;;13.55;6.97;;;;;;;8.07;56.68;99929.38;4333229;33;32367;-93
2021/04/11 21:24:08;;;;;;;11.95;6.18;;;;;;;8.29;56.37;99935.94;4332822;33;34197;-92
2021/04/11 21:27:20;;;;;;;11.63;7.22;;;;;;;8.26;56.05;99945.22;4347827;32;33702;-93
2021/04/11 21:30:19;;;;;;;10.02;6.60;;;;;;;8.14;56.36;99951.91;4348744;32;33472;-93
2021/04/11 21:33:11;;;;;;;16.20;7.20;;;;;;;8.19;56.60;99954.09;4334912;33;33684;-93
2021/04/11 21:36:15;;;;;;;13.52;7.07;;;;;;;8.04;56.94;99951.22;4334504;33;34342;-94
2021/04/11 21:39:27;;;;;;;14.70;8.32;;;;;;;8.37;55.92;99957.50;4344704;32;34179;-93
2021/04/11 21:42:15;;;;;;;15.05;8.43;;;;;;;7.90;57.19;99956.28;4346178;32;33289;-93
2021/04/11 21:45:02;;;;;;;14.98;8.38;;;;;;;7.28;59.99;99948.50;4347886;32;32961;-93
2021/04/11 21:47:39;;;;;;;12.33;7.27;;;;;;;8.22;57.29;99945.69;4337332;33;34060;-92
2021/04/11 21:50:30;;;;;;;11.95;7.57;;;;;;;8.39;56.73;99949.25;4347608;32;34362;-93
2021/04/11 21:53:35;;;;;;;11.93;7.22;;;;;;;7.74;59.02;99945.47;4349019;32;32635;-93
2021/04/11 21:56:23;;;;;;;14.25;7.05;;;;;;;8.46;57.04;99944.91;4348935;32;33066;-91
2021/04/11 21:59:23;;;;;;;12.18;7.43;;;;;;;8.93;55.87;99946.03;4313396;33;34204;-94
2021/04/11 22:02:19;;;;;;;9.82;5.90;;;;;;;8.99;55.83;99938.09;4335233;33;34901;-94
2021/04/11 22:05:36;;;;;;;12.05;6.62;;;;;;;8.98;56.29;99941.81;4347434;32;33461;-93
2021/04/11 22:08:20;;;;;;;10.35;6.07;;;;;;;9.01;56.20;99949.56;4295927;33;34160;-92
2021/04/11 22:11:08;;;;;;;16.70;6.53;;;;;;;9.15;56.40;99944.47;4292498;33;34926;-91
2021/04/11 22:13:58;;;;;;;10.35;5.70;;;;;;;9.05;57.13;99946.50;4318637;33;33707;-91
2021/04/11 22:16:36;;;;;;;;;;;;;;;8.84;57.98;99950.59;4338157;33;33295;-91
2021/04/11 22:19:27;;;;;;;12.93;7.28;;;;;;;8.91;58.06;99946.22;4326830;33;32982;-92
2021/04/11 22:22:26;;;;;;;9.90;6.40;;;;;;;9.02;57.71;99947.69;4338299;33;33582;-92
2021/04/11 22:25:14;;;;;;;33.55;8.43;;;;;;;9.47;56.66;99946.19;4354100;32;33650;-92
2021/04/11 22:28:32;;;;;;;14.87;7.60;;;;;;;9.05;57.41;99943.81;4343348;33;33624;-92
2021/04/11 22:31:17;;;;;;;11.35;7.32;;;;;;;9.06;57.98;99940.13;4334581;33;33182;-92
2021/04/11 22:33:56;;;;;;;12.40;7.90;;;;;;;9.37;57.19;99937.44;4318475;33;33865;-91
2021/04/11 22:36:36;;;;;;;15.50;8.33;;;;;;;9.46;56.94;99940.97;4334090;32;35124;-91
2021/04/11 22:39:48;;;;;;;14.27;6.32;;;;;;;9.43;57.12;99941.31;4341237;33;34077;-91
2021/04/11 22:42:32;;;;;;;17.17;7.43;;;;;;;9.16;57.88;99941.59;4288690;33;34879;-92
2021/04/11 22:45:18;;;;;;;16.48;8.18;;;;;;;8.96;58.53;99945.69;4306048;33;33957;-91
2021/04/11 22:48:08;;;;;;;12.65;7.32;;;;;;;9.21;58.07;99942.91;4340751;33;34485;-93
2021/04/11 22:50:45;;;;;;;11.88;6.87;;;;;;;8.89;59.24;99934.75;4328769;33;33184;-91
2021/04/11 22:53:24;;;;;;;11.00;6.95;;;;;;;8.77;59.77;99936.12;4327557;33;32424;-92
2021/04/11 22:56:03;;;;;;;14.45;7.22;;;;;;;9.19;58.52;99925.06;4342626;33;33313;-91
2021/04/11 22:58:43;;;;;;;13.40;6.78;;;;;;;8.74;59.58;99925.69;4342367;33;35399;-91
2021/04/11 23:01:34;;;;;;;16.70;7.32;;;;;;;9.00;58.55;99912.00;4321307;33;34179;-92
2021/04/11 23:04:19;;;;;;;;;;;;;;;9.36;57.93;99915.03;4320382;33;35136;-92
2021/04/11 23:07:09;;;;;;;13.02;5.93;;;;;;;9.52;57.41;99919.53;4320092;33;34617;-93
2021/04/11 23:09:53;;;;;;;11.10;6.25;;;;;;;9.32;57.83;99923.66;4343327;32;34229;-91
2021/04/11 23:12:43;;;;;;;15.80;6.30;;;;;;;8.83;59.72;99928.19;4331709;33;33647;-92
2021/04/11 23:15:16;;;;;;;13.50;6.78;;;;;;;8.69;59.93;99919.97;4319978;33;32632;-91
2021/04/11 23:18:13;;;;;;;11.00;7.18;;;;;;;8.82;59.85;99918.44;4327850;33;35107;-91
2021/04/11 23:21:01;;;;;;;8.85;5.68;;;;;;;8.27;61.58;99917.25;4329324;33;33430;-90
2021/04/11 23:23:40;;;;;;;8.75;5.40;;;;;;;8.98;58.95;99912.16;4330112;33;33194;-91
2021/04/11 23:26:21;;;;;;;13.38;5.95;;;;;;;8.54;59.85;99923.34;4343365;33;33391;-91
2021/04/11 23:29:31;;;;;;;12.93;5.45;;;;;;;8.64;59.87;99910.53;4331978;33;34332;-92
2021/04/11 23:32:07;;;;;;;7.57;5.70;;;;;;;8.56;60.24;99907.88;4333504;33;32592;-92
2021/04/11 23:35:05;;;;;;;13.32;5.80;;;;;;;8.59;60.05;99910.22;4319748;33;36122;-93
2021/04/11 23:38:02;;;;;;;11.35;5.22;;;;;;;8.56;59.80;99915.09;4333965;33;33241;-92
2021/04/11 23:40:52;;;;;;;9.20;5.32;;;;;;;8.65;59.34;99914.94;4329947;33;34012;-91
2021/04/11 23:43:45;;;;;;;14.77;6.03;;;;;;;8.60;59.62;99919.97;4319755;33;33667;-91
2021/04/11 23:46:33;;;;;;;7.70;5.15;;;;;;;8.20;61.06;99910.84;4336623;33;33493;-91
2021/04/11 23:49:21;;;;;;;10.52;5.70;;;;;;;8.60;59.43;99908.38;4347882;32;34822;-93
2021/04/11 23:52:19;;;;;;;9.25;5.20;;;;;;;8.44;60.11;99910.06;4348853;32;34442;-91